Time;durP1;ratioP1;P1;durP2;ratioP2;P2;SDS_P1;SDS_P2;PMS_P1;PMS_P2;Temp;Humidity;BMP_temperature;BMP_pressure;BME280_temperature;BME280_humidity;BME280_pressure;Samples;Min_cycle;Max_cycle;Signal;HPM_P1;HPM_P2
2022/05/26 00:01:27;;;;;;;57.25;30.55;;;;;;;18.52;75.17;94170.91;5127275;28;20016;-78
2022/05/26 00:03:53;;;;;;;53.78;28.10;;;;;;;18.58;75.28;94178.38;5127493;28;20031;-79
2022/05/26 00:06:21;;;;;;;54.00;29.83;;;;;;;18.55;75.22;94187.16;5126064;28;20012;-79
2022/05/26 00:08:48;;;;;;;68.78;32.55;;;;;;;18.49;74.97;94183.19;5127202;28;20023;-79
2022/05/26 00:11:17;;;;;;;58.67;32.25;;;;;;;18.47;74.76;94195.47;5127341;28;20035;-79
2022/05/26 00:13:43;;;;;;;55.92;31.10;;;;;;;18.45;74.74;94193.13;5127311;28;20341;-80
2022/05/26 00:16:10;;;;;;;56.83;31.35;;;;;;;18.42;74.88;94185.75;5108860;28;20039;-80
2022/05/26 00:18:36;;;;;;;58.60;29.60;;;;;;;18.40;74.78;94171.84;5127068;28;20065;-80
2022/05/26 00:21:02;;;;;;;54.70;29.80;;;;;;;18.39;75.16;94167.56;5127007;28;20031;-80
2022/05/26 00:23:28;;;;;;;57.28;30.50;;;;;;;18.36;75.05;94184.44;5127152;28;20032;-79
2022/05/26 00:25:53;;;;;;;56.30;31.42;;;;;;;18.33;75.39;94174.38;5127227;28;20042;-80
2022/05/26 00:28:19;;;;;;;56.30;30.85;;;;;;;18.36;75.09;94179.06;5126922;28;20030;-79
2022/05/26 00:30:45;;;;;;;53.90;29.83;;;;;;;18.36;74.73;94170.97;5127020;28;20027;-79
2022/05/26 00:33:11;;;;;;;54.42;30.38;;;;;;;18.36;74.87;94168.25;5126972;28;20024;-79
2022/05/26 00:35:40;;;;;;;55.58;29.13;;;;;;;18.36;74.45;94163.66;5126902;28;20034;-80
2022/05/26 00:38:08;;;;;;;62.40;29.48;;;;;;;18.35;74.38;94172.09;5126651;28;20042;-79
2022/05/26 00:40:35;;;;;;;55.63;27.63;;;;;;;18.31;74.35;94161.25;5126885;28;20024;-80
2022/05/26 00:43:00;;;;;;;61.67;30.73;;;;;;;18.31;74.69;94165.84;5126862;28;20027;-79
2022/05/26 00:45:36;;;;;;;51.72;29.27;;;;;;;18.28;74.90;94177.34;5126558;28;20218;-80
2022/05/26 00:48:06;;;;;;;61.22;27.67;;;;;;;18.28;74.67;94169.25;5126824;28;20050;-80
2022/05/26 00:50:37;;;;;;;54.10;28.70;;;;;;;18.30;74.48;94173.19;5126742;28;20024;-81
2022/05/26 00:53:18;;;;;;;52.42;28.27;;;;;;;18.30;73.99;94169.69;5126429;28;20023;-80
2022/05/26 00:55:50;;;;;;;51.67;30.30;;;;;;;18.25;74.14;94171.53;5126480;28;20035;-79
2022/05/26 00:58:24;;;;;;;52.15;28.52;;;;;;;18.28;74.17;94172.75;5126435;28;20631;-79
2022/05/26 01:00:50;;;;;;;45.58;26.38;;;;;;;18.27;74.11;94171.19;5126317;28;20015;-79
2022/05/26 01:03:26;;;;;;;50.75;27.42;;;;;;;18.24;73.78;94178.06;5126168;28;20027;-79
2022/05/26 01:06:03;;;;;;;51.08;27.55;;;;;;;18.22;73.61;94174.94;5126084;28;20329;-79
2022/05/26 01:08:40;;;;;;;48.55;28.50;;;;;;;18.23;74.04;94179.19;5124336;28;20343;-79
2022/05/26 01:11:07;;;;;;;45.80;26.73;;;;;;;18.21;73.74;94172.59;5126292;28;20119;-79
2022/05/26 01:13:39;;;;;;;53.85;27.80;;;;;;;18.15;73.69;94179.41;5126054;28;20264;-79
2022/05/26 01:16:28;;;;;;;56.72;27.95;;;;;;;18.12;73.72;94185.50;5125939;28;20316;-79
2022/05/26 01:19:29;;;;;;;52.90;27.10;;;;;;;18.12;73.73;94196.31;5125845;28;20098;-80
2022/05/26 01:22:17;;;;;;;50.30;27.55;;;;;;;18.13;74.19;94198.63;5070897;28;20037;-78
2022/05/26 01:24:51;;;;;;;48.25;26.23;;;;;;;18.10;73.73;94201.25;5125328;28;20023;-78
2022/05/26 01:27:35;;;;;;;53.40;27.50;;;;;;;18.07;74.27;94191.16;5125878;28;20024;-77
2022/05/26 01:30:04;;;;;;;49.97;25.13;;;;;;;18.00;74.00;94205.28;5125588;28;20026;-79
2022/05/26 01:32:50;;;;;;;52.95;27.33;;;;;;;17.95;74.78;94202.84;5125524;28;20304;-79
2022/05/26 01:35:29;;;;;;;54.55;28.35;;;;;;;17.90;74.99;94205.81;5125562;28;20330;-77
2022/05/26 01:38:09;;;;;;;46.35;25.88;;;;;;;17.83;75.00;94191.06;5125466;28;20094;-77
2022/05/26 01:40:38;;;;;;;47.65;25.55;;;;;;;17.80;74.69;94201.72;5125201;28;20233;-77
2022/05/26 01:43:25;;;;;;;48.50;26.55;;;;;;;17.80;74.79;94205.19;5125456;28;20210;-77
2022/05/26 01:46:01;;;;;;;50.65;26.92;;;;;;;17.78;74.96;94206.69;5125352;28;20191;-76
2022/05/26 01:48:32;;;;;;;49.10;25.83;;;;;;;17.75;75.14;94202.78;5125044;28;20043;-76
2022/05/26 01:51:13;;;;;;;55.50;28.70;;;;;;;17.71;75.11;94210.00;5125151;28;20031;-76
2022/05/26 01:53:44;;;;;;;50.35;27.85;;;;;;;17.67;75.23;94208.34;5125078;28;20256;-77
2022/05/26 01:56:25;;;;;;;44.63;27.50;;;;;;;17.61;75.60;94216.69;5125185;28;20028;-77
2022/05/26 01:59:00;;;;;;;50.38;27.67;;;;;;;17.56;75.69;94210.78;5125244;28;20269;-77
2022/05/26 02:01:31;;;;;;;55.85;28.70;;;;;;;17.46;76.41;94209.38;5125033;28;20225;-77
2022/05/26 02:04:02;;;;;;;57.10;29.15;;;;;;;17.47;76.24;94194.03;5125133;28;20139;-77
2022/05/26 02:06:34;;;;;;;49.85;26.50;;;;;;;17.44;76.19;94207.06;5125081;28;20122;-77
2022/05/26 02:09:07;;;;;;;56.90;27.08;;;;;;;17.50;75.92;94201.38;5124797;28;20023;-77
2022/05/26 02:11:35;;;;;;;48.00;26.77;;;;;;;17.51;75.94;94194.88;5124827;28;20049;-77
2022/05/26 02:14:12;;;;;;;45.38;25.25;;;;;;;17.52;75.92;94199.13;5124779;28;20318;-77
2022/05/26 02:16:46;;;;;;;57.17;27.88;;;;;;;17.54;75.65;94196.88;5124619;28;20054;-77
2022/05/26 02:19:20;;;;;;;54.60;26.35;;;;;;;17.56;76.02;94200.00;5124575;28;20225;-76
2022/05/26 02:22:11;;;;;;;51.08;26.10;;;;;;;17.56;75.44;94181.91;5124346;28;20035;-80
2022/05/26 02:24:42;;;;;;;43.43;26.40;;;;;;;17.59;75.44;94204.72;5124324;28;20051;-81
2022/05/26 02:27:08;;;;;;;52.60;26.42;;;;;;;17.55;75.18;94187.66;5106341;28;20031;-80
2022/05/26 02:29:52;;;;;;;48.25;25.27;;;;;;;17.55;75.29;94201.91;5124803;28;20222;-81
2022/05/26 02:32:21;;;;;;;45.70;26.50;;;;;;;17.52;75.06;94201.81;5124751;28;20321;-81
2022/05/26 02:34:49;;;;;;;49.92;26.77;;;;;;;17.53;74.76;94219.56;5124318;28;20023;-81
2022/05/26 02:37:14;;;;;;;51.83;25.15;;;;;;;17.56;75.20;94210.78;5124752;28;20024;-81
2022/05/26 02:39:40;;;;;;;53.15;25.80;;;;;;;17.51;74.83;94211.84;5124374;28;20115;-81
2022/05/26 02:42:08;;;;;;;44.47;24.63;;;;;;;17.53;74.99;94208.78;5124563;28;20065;-81
2022/05/26 02:44:34;;;;;;;48.28;25.83;;;;;;;17.52;74.75;94229.56;5124389;28;20019;-81
2022/05/26 02:47:27;;;;;;;55.97;27.52;;;;;;;17.47;74.99;94220.97;5124047;28;20133;-81
2022/05/26 02:50:16;;;;;;;51.40;27.90;;;;;;;17.43;75.26;94212.78;5124058;28;20023;-81
2022/05/26 02:53:09;;;;;;;50.80;27.20;;;;;;;17.39;75.50;94210.00;5124280;28;20023;-81
2022/05/26 02:56:07;;;;;;;52.05;27.17;;;;;;;17.34;75.45;94201.38;5082104;28;20053;-77
2022/05/26 02:58:50;;;;;;;51.03;27.05;;;;;;;17.35;75.72;94198.34;5107537;28;20111;-77
2022/05/26 03:01:40;;;;;;;50.28;27.13;;;;;;;17.36;75.85;94191.03;5123999;28;20037;-77
2022/05/26 03:04:25;;;;;;;47.42;26.85;;;;;;;17.37;76.08;94201.47;5123627;28;20028;-77
2022/05/26 03:06:54;;;;;;;49.17;26.40;;;;;;;17.39;76.12;94196.53;5123885;28;20242;-77
2022/05/26 03:09:20;;;;;;;61.30;27.33;;;;;;;17.43;76.01;94210.09;5123591;28;20095;-77
2022/05/26 03:11:52;;;;;;;56.13;27.02;;;;;;;17.48;76.20;94219.81;5123779;28;20087;-77
2022/05/26 03:14:19;;;;;;;59.80;27.37;;;;;;;17.48;75.47;94227.91;5123580;28;20042;-77
2022/05/26 03:16:45;;;;;;;51.95;27.15;;;;;;;17.39;75.18;94231.56;5123801;28;20195;-78
2022/05/26 03:19:11;;;;;;;48.70;26.35;;;;;;;17.38;75.17;94239.97;5123448;28;20030;-78
2022/05/26 03:21:37;;;;;;;51.42;26.67;;;;;;;17.39;75.47;94244.25;5123551;28;20237;-77
2022/05/26 03:24:03;;;;;;;49.13;27.40;;;;;;;17.37;75.65;94249.19;5123482;28;20024;-76
2022/05/26 03:26:28;;;;;;;49.30;25.60;;;;;;;17.39;75.50;94249.63;5123398;28;20019;-77
2022/05/26 03:28:54;;;;;;;47.40;24.98;;;;;;;17.39;75.14;94257.72;5105168;28;20309;-77
2022/05/26 03:31:20;;;;;;;50.05;26.85;;;;;;;17.42;75.71;94257.81;5123111;28;20047;-77
2022/05/26 03:41:57;;;;;;;49.85;26.85;;;;;;;17.53;75.68;94241.13;5123319;28;20361;-77
2022/05/26 03:44:25;;;;;;;49.03;26.83;;;;;;;17.58;75.48;94244.31;5123159;28;20015;-77
2022/05/26 03:46:51;;;;;;;53.30;28.27;;;;;;;17.62;75.86;94249.81;5123011;28;20015;-76
2022/05/26 03:49:17;;;;;;;56.40;28.13;;;;;;;17.66;75.76;94245.28;5123188;28;20341;-77
2022/05/26 03:51:42;;;;;;;60.53;27.85;;;;;;;17.71;75.77;94249.63;5123182;28;20094;-77
2022/05/26 03:54:07;;;;;;;58.85;27.63;;;;;;;17.74;75.56;94262.44;5123052;28;20023;-77
2022/05/26 03:56:33;;;;;;;48.08;27.35;;;;;;;17.80;75.74;94266.44;5123157;28;20026;-77
2022/05/26 03:58:58;;;;;;;54.90;27.23;;;;;;;17.83;75.53;94266.56;5123143;28;20039;-79
2022/05/26 04:01:24;;;;;;;50.80;26.27;;;;;;;17.86;74.76;94280.47;5123177;28;20019;-79
2022/05/26 04:03:49;;;;;;;55.80;25.80;;;;;;;17.86;74.08;94288.56;5122940;28;20023;-78
2022/05/26 04:06:16;;;;;;;46.70;25.77;;;;;;;17.86;74.82;94296.63;5123249;28;20036;-78
2022/05/26 04:08:41;;;;;;;45.42;26.00;;;;;;;17.88;74.41;94288.97;5123027;28;20040;-76
2022/05/26 04:11:07;;;;;;;47.53;25.40;;;;;;;17.91;74.27;94283.69;5122740;28;20026;-76
2022/05/26 04:13:32;;;;;;;50.88;27.42;;;;;;;17.95;74.17;94292.66;5122827;28;20260;-77
2022/05/26 04:15:58;;;;;;;49.53;26.42;;;;;;;17.98;74.40;94293.84;5122897;28;20031;-76
2022/05/26 04:18:23;;;;;;;52.28;29.13;;;;;;;18.03;75.03;94290.88;5122862;28;20045;-77
2022/05/26 04:20:49;;;;;;;58.67;28.33;;;;;;;18.08;74.56;94285.22;5122659;28;20024;-76
2022/05/26 04:23:15;;;;;;;47.78;28.73;;;;;;;18.15;74.70;94269.19;5122772;28;20035;-76
2022/05/26 04:25:40;;;;;;;61.05;28.88;;;;;;;18.21;74.46;94275.88;5122789;28;20038;-76
2022/05/26 04:28:06;;;;;;;53.13;28.35;;;;;;;18.24;74.76;94280.59;5122816;28;20251;-76
2022/05/26 04:30:31;;;;;;;62.47;28.10;;;;;;;18.31;74.70;94281.88;5122504;28;20099;-76
2022/05/26 04:32:57;;;;;;;49.78;27.27;;;;;;;18.39;74.66;94289.00;5122632;28;20039;-77
2022/05/26 04:35:22;;;;;;;57.45;28.63;;;;;;;18.47;74.59;94288.03;5122589;28;20095;-76
2022/05/26 04:37:48;;;;;;;50.00;27.58;;;;;;;18.53;74.04;94297.41;5122700;28;20064;-77
2022/05/26 04:40:14;;;;;;;53.33;27.30;;;;;;;18.60;73.28;94291.38;5122775;28;20377;-78
2022/05/26 04:42:40;;;;;;;52.28;28.85;;;;;;;18.68;72.76;94297.72;5122716;28;20104;-78
2022/05/26 04:45:08;;;;;;;50.08;27.90;;;;;;;18.74;72.67;94290.91;5125723;28;20027;-77
2022/05/26 04:47:33;;;;;;;52.17;28.85;;;;;;;18.79;72.45;94304.16;5125780;28;20340;-77
2022/05/26 04:49:58;;;;;;;53.20;28.50;;;;;;;18.83;73.33;94288.81;5126389;28;20035;-76
2022/05/26 04:52:25;;;;;;;53.72;30.77;;;;;;;18.89;72.66;94290.09;5126334;28;20065;-77
2022/05/26 04:54:54;;;;;;;56.78;29.77;;;;;;;18.99;73.10;94302.22;5125937;28;20065;-76
2022/05/26 04:57:22;;;;;;;63.80;30.77;;;;;;;19.07;72.73;94298.56;5126322;28;20023;-76
2022/05/26 04:59:49;;;;;;;62.10;30.38;;;;;;;19.14;72.58;94303.31;5126208;28;20092;-76
2022/05/26 05:02:16;;;;;;;55.05;29.27;;;;;;;19.19;72.28;94295.72;5126509;28;20068;-78
2022/05/26 05:04:44;;;;;;;59.35;29.77;;;;;;;19.28;71.51;94306.28;5126146;28;20023;-79
2022/05/26 05:07:11;;;;;;;56.08;29.75;;;;;;;19.33;71.78;94305.97;5126159;28;20023;-79
2022/05/26 05:09:39;;;;;;;60.17;28.85;;;;;;;19.33;72.04;94299.81;5126193;28;20352;-76
2022/05/26 05:12:07;;;;;;;58.97;29.90;;;;;;;19.36;70.80;94299.09;5126194;28;20069;-77
2022/05/26 05:14:38;;;;;;;54.25;26.45;;;;;;;19.37;69.42;94306.06;5125848;28;20020;-76
2022/05/26 05:17:04;;;;;;;50.75;27.20;;;;;;;19.40;69.18;94303.44;5125955;28;20043;-76
2022/05/26 05:19:29;;;;;;;46.85;25.70;;;;;;;19.43;69.12;94299.22;5125709;28;20086;-76
2022/05/26 05:22:00;;;;;;;53.70;25.38;;;;;;;19.50;68.74;94314.78;5125706;28;20090;-76
2022/05/26 05:24:39;;;;;;;40.03;24.88;;;;;;;19.56;68.59;94305.22;5125913;28;20035;-77
2022/05/26 05:27:30;;;;;;;49.35;23.65;;;;;;;19.58;67.61;94302.94;5125782;28;20020;-77
2022/05/26 05:29:59;;;;;;;53.47;23.80;;;;;;;19.56;66.91;94314.16;5125581;28;20234;-78
2022/05/26 05:32:38;;;;;;;54.55;24.50;;;;;;;19.63;66.90;94313.50;5125586;28;20077;-78
2022/05/26 05:35:10;;;;;;;49.20;23.63;;;;;;;19.63;66.66;94325.06;5125739;28;20071;-77
2022/05/26 05:37:36;;;;;;;54.58;25.77;;;;;;;19.68;67.08;94324.00;5125675;28;20031;-77
2022/05/26 05:40:03;;;;;;;44.58;24.15;;;;;;;19.74;66.30;94328.03;5125475;28;20016;-77
2022/05/26 05:42:29;;;;;;;60.78;26.13;;;;;;;19.77;66.48;94330.00;5125181;28;20191;-78
2022/05/26 05:44:57;;;;;;;54.05;26.55;;;;;;;19.81;67.04;94330.84;5125458;28;20015;-78
2022/05/26 05:47:22;;;;;;;55.83;27.05;;;;;;;19.88;66.53;94338.28;5125231;28;20031;-77
2022/05/26 05:49:48;;;;;;;58.90;27.77;;;;;;;19.93;66.88;94342.63;5125454;28;20333;-77
2022/05/26 05:52:21;;;;;;;58.15;28.45;;;;;;;20.02;66.39;94356.69;5125422;28;20018;-77
2022/05/26 05:54:49;;;;;;;58.15;27.88;;;;;;;20.11;67.14;94342.91;5125199;28;20055;-77
2022/05/26 05:57:14;;;;;;;60.17;27.75;;;;;;;20.22;66.12;94344.66;5125211;28;20031;-77
2022/05/26 05:59:40;;;;;;;65.55;26.77;;;;;;;20.29;65.65;94354.03;5125417;28;20019;-77
2022/05/26 06:02:06;;;;;;;52.33;24.65;;;;;;;20.40;64.71;94357.69;5125192;28;20284;-77
2022/05/26 06:04:32;;;;;;;50.03;24.92;;;;;;;20.50;64.44;94361.72;5125193;28;20322;-77
2022/05/26 06:06:59;;;;;;;58.33;26.65;;;;;;;20.64;64.61;94356.53;5125048;28;20031;-77
2022/05/26 06:09:24;;;;;;;52.08;24.30;;;;;;;20.74;63.33;94360.53;5124704;28;20031;-78
2022/05/26 06:11:50;;;;;;;53.35;24.98;;;;;;;20.79;63.31;94365.66;5124874;28;20069;-80
2022/05/26 06:14:16;;;;;;;47.70;26.45;;;;;;;20.91;63.96;94368.13;5106823;28;20050;-80
2022/05/26 06:16:44;;;;;;;52.85;26.05;;;;;;;21.00;64.20;94374.06;5106656;28;20027;-80
2022/05/26 06:19:09;;;;;;;66.40;25.33;;;;;;;21.11;65.15;94370.72;5106609;28;20035;-79
2022/05/26 06:21:37;;;;;;;50.20;24.50;;;;;;;21.15;63.00;94377.75;5124651;28;20039;-76
2022/05/26 06:24:03;;;;;;;47.47;24.75;;;;;;;21.22;62.39;94371.63;5124392;28;20035;-76
2022/05/26 06:26:29;;;;;;;47.63;24.20;;;;;;;21.30;61.83;94369.78;5124566;28;20012;-76
2022/05/26 06:31:39;;;;;;;52.17;23.40;;;;;;;21.46;60.90;94380.47;5124497;28;20088;-76
2022/05/26 06:39:33;;;;;;;49.42;24.55;;;;;;;21.43;60.80;94380.06;5124273;28;20344;-76
2022/05/26 06:42:08;;;;;;;55.83;27.30;;;;;;;21.42;60.38;94378.50;5124039;28;20020;-75
2022/05/26 06:44:37;;;;;;;54.75;26.60;;;;;;;21.41;60.61;94385.06;5123851;28;20050;-76
2022/05/26 06:47:05;;;;;;;49.55;25.58;;;;;;;21.37;61.62;94386.94;5123987;28;20090;-76
2022/05/26 06:49:33;;;;;;;57.65;26.42;;;;;;;21.40;61.70;94390.84;5124042;28;20044;-76
2022/05/26 06:51:59;;;;;;;59.38;25.83;;;;;;;21.45;61.63;94393.22;5124087;28;20016;-76
2022/05/26 06:54:24;;;;;;;54.88;27.55;;;;;;;21.43;61.83;94388.19;5123068;28;20098;-77
2022/05/26 06:56:50;;;;;;;61.75;27.52;;;;;;;21.37;61.74;94392.34;5123691;28;20065;-77
2022/05/26 06:59:15;;;;;;;71.88;26.67;;;;;;;21.37;62.58;94400.50;5123983;28;20348;-77
2022/05/26 07:01:41;;;;;;;49.72;26.05;;;;;;;21.32;62.84;94400.03;5123764;28;20015;-76
2022/05/26 07:04:06;;;;;;;50.80;26.13;;;;;;;21.29;62.67;94404.25;5123774;28;20054;-74
2022/05/26 07:06:32;;;;;;;56.22;24.88;;;;;;;21.31;62.42;94404.69;5123321;28;20057;-74
2022/05/26 07:08:57;;;;;;;57.40;25.58;;;;;;;21.31;61.76;94403.88;5123760;28;20106;-82
2022/05/26 07:11:22;;;;;;;64.05;27.42;;;;;;;21.39;62.83;94414.47;5123362;28;20031;-75
2022/05/26 07:13:48;;;;;;;50.53;22.90;;;;;;;21.49;62.50;94402.19;5124159;28;20043;-81
2022/05/26 07:16:15;;;;;;;53.72;22.70;;;;;;;21.58;61.10;94404.63;5122841;28;20039;-81
2022/05/26 07:18:41;;;;;;;43.65;22.40;;;;;;;21.69;59.47;94402.81;5123300;28;20043;-80
2022/05/26 07:21:08;;;;;;;53.63;19.48;;;;;;;21.79;59.85;94409.53;5122342;28;20026;-80
2022/05/26 07:23:34;;;;;;;50.38;20.67;;;;;;;21.95;58.89;94412.03;5123636;28;20249;-79
2022/05/26 07:26:07;;;;;;;34.35;13.30;;;;;;;22.02;57.98;94402.03;5124281;28;20094;-82
2022/05/26 07:28:38;;;;;;;24.63;9.52;;;;;;;22.16;52.23;94400.59;5123508;28;20333;-81
2022/05/26 07:31:04;;;;;;;25.02;9.07;;;;;;;22.29;52.26;94401.09;5124029;28;20027;-81
2022/05/26 07:33:29;;;;;;;19.92;7.28;;;;;;;22.40;49.54;94402.75;5123535;28;20019;-81
2022/05/26 07:35:54;;;;;;;21.77;7.22;;;;;;;22.54;48.80;94395.91;5123395;28;20024;-79
2022/05/26 07:41:16;;;;;;;12.68;5.22;;;;;;;22.89;45.12;94398.09;5123355;28;20132;-83
2022/05/26 07:43:44;;;;;;;9.75;3.95;;;;;;;23.00;42.71;94401.66;5123277;28;20015;-80
2022/05/26 07:46:10;;;;;;;15.82;3.55;;;;;;;23.10;41.84;94397.47;5123235;28;20023;-80
2022/05/26 07:48:36;;;;;;;10.05;3.00;;;;;;;23.20;41.10;94402.19;5123747;28;20043;-82
2022/05/26 07:51:02;;;;;;;18.70;2.80;;;;;;;23.33;41.79;94399.94;5123792;28;20068;-81
2022/05/26 07:53:28;;;;;;;10.52;3.25;;;;;;;23.37;40.44;94389.84;5123253;28;20022;-83
2022/05/26 07:55:53;;;;;;;11.10;3.30;;;;;;;23.39;40.30;94398.41;5123719;28;20039;-83
2022/05/26 07:58:20;;;;;;;18.02;3.78;;;;;;;23.43;40.35;94406.59;5124395;28;20028;-82
2022/05/26 08:00:46;;;;;;;14.70;3.90;;;;;;;23.55;41.02;94408.16;5123511;28;20026;-82
2022/05/26 08:03:11;;;;;;;14.30;3.30;;;;;;;23.64;41.93;94409.38;5124112;28;20016;-80
2022/05/26 08:05:39;;;;;;;14.55;4.03;;;;;;;23.76;41.60;94410.97;5105362;28;20011;-81
2022/05/26 08:08:04;;;;;;;28.67;4.82;;;;;;;23.83;42.54;94413.75;5123626;28;20046;-82
2022/05/26 08:10:30;;;;;;;13.70;3.42;;;;;;;23.96;42.00;94407.97;5124052;28;20015;-82
2022/05/26 08:12:55;;;;;;;8.05;2.95;;;;;;;24.06;39.97;94425.47;5123822;28;20019;-80
2022/05/26 08:15:22;;;;;;;13.00;3.15;;;;;;;24.15;39.65;94413.03;5122918;28;20012;-79
2022/05/26 08:17:47;;;;;;;11.27;3.40;;;;;;;24.25;39.47;94429.81;5123245;28;20020;-79
2022/05/26 08:20:13;;;;;;;13.70;2.97;;;;;;;24.26;39.89;94421.22;5127334;28;20370;-82
2022/05/26 08:22:39;;;;;;;18.75;5.05;;;;;;;24.25;39.53;94408.00;5108870;28;20046;-80
2022/05/26 08:25:05;;;;;;;12.88;3.58;;;;;;;24.20;39.93;94434.47;5127192;28;20318;-79
2022/05/26 08:27:31;;;;;;;13.27;3.10;;;;;;;24.20;39.36;94418.13;5126771;28;20022;-77
2022/05/26 08:29:56;;;;;;;15.55;4.15;;;;;;;24.25;39.44;94430.56;5126857;28;20322;-78
2022/05/26 08:32:22;;;;;;;11.32;3.67;;;;;;;24.36;39.91;94434.09;5126417;28;20061;-80
2022/05/26 08:34:48;;;;;;;8.93;3.53;;;;;;;24.40;40.03;94425.91;5126904;28;20023;-79
2022/05/26 08:37:16;;;;;;;11.15;3.75;;;;;;;24.35;39.29;94431.75;5108329;28;20049;-79
2022/05/26 08:39:42;;;;;;;9.70;3.55;;;;;;;24.37;39.74;94432.94;5126719;28;20044;-79
2022/05/26 08:42:16;;;;;;;12.27;3.78;;;;;;;24.43;39.72;94436.06;5126766;28;20027;-78
2022/05/26 08:44:42;;;;;;;15.75;4.22;;;;;;;24.57;40.90;94441.53;5126663;28;20250;-78
2022/05/26 08:47:10;;;;;;;13.77;3.50;;;;;;;24.56;39.51;94431.78;5126439;28;20158;-80
2022/05/26 08:50:00;;;;;;;12.40;3.58;;;;;;;24.59;40.32;94439.22;5126216;28;20016;-80
2022/05/26 08:52:33;;;;;;;12.75;3.25;;;;;;;24.62;39.41;94430.25;5126789;28;20027;-81
2022/05/26 08:55:11;;;;;;;12.75;4.18;;;;;;;24.73;40.83;94432.19;5126352;28;20020;-79
2022/05/26 08:57:36;;;;;;;15.68;3.30;;;;;;;24.74;38.32;94431.03;5108300;28;20274;-81
2022/05/26 09:00:03;;;;;;;16.00;3.40;;;;;;;24.70;37.70;94438.44;5126543;28;20023;-81
2022/05/26 09:02:33;;;;;;;9.80;3.00;;;;;;;24.65;36.97;94423.25;5126313;28;20075;-79
2022/05/26 09:05:01;;;;;;;11.30;2.80;;;;;;;24.72;38.39;94436.09;5126541;28;20069;-78
2022/05/26 09:13:12;;;;;;;13.48;3.00;;;;;;;24.81;37.78;94440.00;5126055;28;20057;-82
2022/05/26 09:15:38;;;;;;;11.10;2.83;;;;;;;24.95;38.92;94428.31;5126075;28;20031;-81
2022/05/26 09:18:19;;;;;;;12.48;2.85;;;;;;;25.07;37.12;94432.56;5125972;28;20047;-81
2022/05/26 09:20:47;;;;;;;9.75;3.25;;;;;;;25.15;33.25;94427.88;5125985;28;20060;-82
2022/05/26 09:23:14;;;;;;;12.07;3.15;;;;;;;25.25;34.75;94429.81;5125882;28;20027;-81
2022/05/26 09:25:42;;;;;;;11.55;2.80;;;;;;;25.37;34.15;94432.13;5125970;28;20077;-80
2022/05/26 09:28:12;;;;;;;7.40;2.90;;;;;;;25.43;34.44;94440.69;5125900;28;20426;-80
2022/05/26 09:30:38;;;;;;;11.85;2.92;;;;;;;25.40;34.16;94431.38;5125032;28;20087;-80
2022/05/26 09:33:17;;;;;;;8.73;3.05;;;;;;;25.35;35.40;94433.72;5107266;28;20027;-79
2022/05/26 09:35:43;;;;;;;12.45;3.38;;;;;;;25.40;34.77;94436.03;5125534;28;20329;-80
2022/05/26 09:38:15;;;;;;;10.07;2.85;;;;;;;25.38;35.22;94428.25;5125427;28;20030;-79
2022/05/26 09:40:45;;;;;;;11.60;3.15;;;;;;;25.40;34.36;94428.63;5125254;28;20034;-79
2022/05/26 09:43:23;;;;;;;10.93;3.33;;;;;;;25.51;34.44;94438.75;5125298;28;20020;-79
2022/05/26 09:45:53;;;;;;;11.77;2.10;;;;;;;25.55;31.87;94420.41;5125972;28;20020;-79
2022/05/26 09:48:26;;;;;;;16.52;2.72;;;;;;;25.56;32.73;94439.09;5125355;28;20047;-79
2022/05/26 09:51:03;;;;;;;10.10;2.50;;;;;;;25.65;32.72;94430.50;5125552;28;20016;-80
2022/05/26 09:53:32;;;;;;;12.95;3.17;;;;;;;25.77;33.26;94426.56;5125564;28;20282;-80
2022/05/26 09:55:58;;;;;;;11.98;2.75;;;;;;;25.87;29.65;94446.78;5125170;28;20023;-80
2022/05/26 09:58:30;;;;;;;5.82;2.80;;;;;;;25.85;30.09;94419.88;5125189;28;20157;-80
2022/05/26 10:01:01;;;;;;;12.95;2.53;;;;;;;25.90;31.23;94419.50;5125091;28;20027;-80
2022/05/26 10:03:36;;;;;;;8.05;2.28;;;;;;;25.95;29.92;94432.75;5124694;28;20027;-80
2022/05/26 10:06:27;;;;;;;10.68;3.15;;;;;;;26.04;31.63;94417.88;5125056;28;20110;-81
2022/05/26 10:09:03;;;;;;;9.23;2.72;;;;;;;26.12;31.81;94403.78;5124857;28;20098;-81
2022/05/26 10:11:47;;;;;;;14.30;2.63;;;;;;;26.22;30.30;94432.22;5124809;28;20364;-81
2022/05/26 10:15:06;;;;;;;11.43;2.65;;;;;;;26.33;31.29;94415.72;5125010;28;20031;-81
2022/05/26 10:17:40;;;;;;;8.57;2.38;;;;;;;26.35;31.36;94396.97;5061910;28;20033;-80
2022/05/26 10:20:08;;;;;;;12.80;2.20;;;;;;;26.33;30.54;94413.00;5105381;28;20199;-80
2022/05/26 10:22:50;;;;;;;10.63;3.17;;;;;;;26.40;30.35;94410.22;5124558;28;20028;-83
2022/05/26 10:25:41;;;;;;;;;;;;;;;26.53;28.12;94413.25;5125204;28;20103;-80
2022/05/26 10:28:21;;;;;;;13.27;2.53;;;;;;;26.55;27.67;94421.84;5124460;28;20071;-81
2022/05/26 10:30:46;;;;;;;14.10;2.92;;;;;;;26.50;28.15;94409.38;5124529;28;20149;-80
2022/05/26 10:33:43;;;;;;;11.73;2.63;;;;;;;26.59;26.58;94434.31;5123647;28;20317;-80
2022/05/26 10:36:18;;;;;;;8.23;1.88;;;;;;;26.55;26.04;94416.38;5124032;28;20214;-80
2022/05/26 10:38:57;;;;;;;9.25;2.42;;;;;;;26.42;27.32;94407.88;5124137;28;20024;-80
2022/05/26 10:41:43;;;;;;;10.50;2.65;;;;;;;26.50;29.49;94403.91;5123177;28;20098;-80
2022/05/26 10:44:44;;;;;;;12.45;2.67;;;;;;;26.52;27.94;94420.69;5123818;28;20250;-80
2022/05/26 10:47:27;;;;;;;20.75;4.75;;;;;;;26.52;28.37;94409.75;5090993;28;20074;-80
2022/05/26 10:50:02;;;;;;;8.98;2.58;;;;;;;26.66;28.89;94413.56;5122204;28;20222;-80
2022/05/26 10:52:32;;;;;;;7.55;3.30;;;;;;;26.77;30.10;94406.06;5121781;28;20019;-80
2022/05/26 10:55:10;;;;;;;10.27;2.60;;;;;;;26.94;30.25;94394.19;5121865;28;20080;-80
2022/05/26 10:57:45;;;;;;;11.52;2.67;;;;;;;27.07;28.57;94399.13;5121677;28;20023;-80
2022/05/26 11:00:19;;;;;;;18.25;3.10;;;;;;;27.02;30.30;94397.63;5121567;28;20028;-80
2022/05/26 11:02:57;;;;;;;27.85;3.95;;;;;;;27.04;31.10;94399.97;5122052;28;20030;-80
2022/05/26 11:05:22;;;;;;;14.60;3.58;;;;;;;26.95;31.29;94390.28;5123668;28;20027;-83
2022/05/26 11:07:53;;;;;;;12.43;3.67;;;;;;;26.95;32.31;94390.28;5123633;28;20423;-84
2022/05/26 11:10:40;;;;;;;17.52;3.85;;;;;;;26.98;32.76;94392.19;5123893;28;20245;-78
2022/05/26 11:13:17;;;;;;;11.63;3.17;;;;;;;27.05;33.74;94387.81;5123328;28;20028;-78
2022/05/26 11:18:40;;;;;;;11.10;3.13;;;;;;;27.06;33.90;94381.19;5123481;28;20333;-78
2022/05/26 11:21:05;;;;;;;6.88;2.80;;;;;;;26.95;34.41;94386.78;5123347;28;20071;-79
2022/05/26 11:23:37;;;;;;;12.40;3.00;;;;;;;27.02;33.46;94383.94;5123177;28;20210;-79
2022/05/26 11:26:25;;;;;;;12.98;3.08;;;;;;;26.97;32.71;94398.84;5122984;28;20012;-80
2022/05/26 11:29:04;;;;;;;10.82;2.90;;;;;;;26.80;32.34;94391.56;5121968;28;20365;-79
2022/05/26 11:37:23;;;;;;;16.17;3.08;;;;;;;26.81;32.57;94371.25;5123205;28;20244;-80
2022/05/26 11:39:54;;;;;;;10.43;3.78;;;;;;;26.95;32.37;94359.41;5123564;28;20042;-79
2022/05/26 11:42:46;;;;;;;12.18;3.50;;;;;;;26.97;33.11;94368.75;5123492;28;20152;-79
2022/05/26 11:45:19;;;;;;;13.02;2.90;;;;;;;26.93;32.78;94367.25;5120058;28;20032;-81
2022/05/26 11:48:10;;;;;;;13.43;3.25;;;;;;;27.00;33.53;94361.69;5122648;28;20241;-83
2022/05/26 11:50:54;;;;;;;8.85;2.80;;;;;;;26.93;32.46;94372.72;5119895;28;20418;-84
2022/05/26 11:53:41;;;;;;;13.18;3.13;;;;;;;26.98;33.35;94369.53;5123097;28;20016;-81
2022/05/26 11:56:28;;;;;;;10.55;3.50;;;;;;;27.00;33.92;94383.56;5122764;28;20019;-82
2022/05/26 11:59:18;;;;;;;16.52;2.85;;;;;;;27.06;34.76;94381.19;5122894;28;20027;-82
2022/05/26 12:01:59;;;;;;;12.20;4.18;;;;;;;27.10;34.30;94384.66;5123120;28;20030;-81
2022/05/26 12:04:36;;;;;;;9.73;3.13;;;;;;;27.22;34.21;94384.16;5122911;28;20031;-82
2022/05/26 12:07:25;;;;;;;10.18;2.70;;;;;;;27.33;32.90;94386.78;5122747;28;20020;-81
2022/05/26 12:09:57;;;;;;;10.38;2.72;;;;;;;27.45;33.42;94380.78;5122830;28;20027;-81
2022/05/26 12:12:22;;;;;;;11.57;2.67;;;;;;;27.69;32.98;94375.41;5122701;28;20019;-80
2022/05/26 12:14:50;;;;;;;15.30;4.50;;;;;;;27.82;33.06;94373.66;5122900;28;20086;-81